sensor_id;sensor_type;location;lat;lon;timestamp;temperature;humidity
37786;DHT22;23625;48.784;9.336;2023-05-10T00:00:13;14.10;99.90
37786;DHT22;23625;48.784;9.336;2023-05-10T00:02:39;14.10;99.90
37786;DHT22;23625;48.784;9.336;2023-05-10T00:05:05;14.00;99.90
37786;DHT22;23625;48.784;9.336;2023-05-10T00:07:31;14.00;99.90
37786;DHT22;23625;48.784;9.336;2023-05-10T00:09:56;14.00;99.90
37786;DHT22;23625;48.784;9.336;2023-05-10T00:12:22;14.00;99.90
37786;DHT22;23625;48.784;9.336;2023-05-10T00:14:47;14.00;99.90
37786;DHT22;23625;48.784;9.336;2023-05-10T00:17:13;14.00;99.90
37786;DHT22;23625;48.784;9.336;2023-05-10T00:19:38;13.90;99.90
37786;DHT22;23625;48.784;9.336;2023-05-10T00:22:04;14.00;99.90
37786;DHT22;23625;48.784;9.336;2023-05-10T00:24:30;14.20;99.90
37786;DHT22;23625;48.784;9.336;2023-05-10T00:26:55;14.00;99.90
37786;DHT22;23625;48.784;9.336;2023-05-10T00:29:21;14.00;99.90
37786;DHT22;23625;48.784;9.336;2023-05-10T00:31:47;13.90;99.90
37786;DHT22;23625;48.784;9.336;2023-05-10T00:34:12;13.80;99.90
37786;DHT22;23625;48.784;9.336;2023-05-10T00:36:38;13.70;99.90
37786;DHT22;23625;48.784;9.336;2023-05-10T00:39:03;13.70;99.90
37786;DHT22;23625;48.784;9.336;2023-05-10T00:41:29;13.60;99.90
37786;DHT22;23625;48.784;9.336;2023-05-10T00:43:58;13.60;99.90
37786;DHT22;23625;48.784;9.336;2023-05-10T00:46:23;13.80;99.90
37786;DHT22;23625;48.784;9.336;2023-05-10T00:48:50;13.80;99.90
37786;DHT22;23625;48.784;9.336;2023-05-10T00:51:16;13.70;99.90
37786;DHT22;23625;48.784;9.336;2023-05-10T00:53:42;13.60;99.90
37786;DHT22;23625;48.784;9.336;2023-05-10T00:56:08;13.70;99.90
37786;DHT22;23625;48.784;9.336;2023-05-10T00:58:33;13.60;99.90
37786;DHT22;23625;48.784;9.336;2023-05-10T01:00:59;13.60;99.90
37786;DHT22;23625;48.784;9.336;2023-05-10T01:03:25;13.70;99.90
37786;DHT22;23625;48.784;9.336;2023-05-10T01:05:51;13.60;99.90
37786;DHT22;23625;48.784;9.336;2023-05-10T01:08:17;13.60;99.90
37786;DHT22;23625;48.784;9.336;2023-05-10T01:10:43;13.50;99.90
37786;DHT22;23625;48.784;9.336;2023-05-10T01:13:09;13.50;99.90
37786;DHT22;23625;48.784;9.336;2023-05-10T01:15:35;13.40;99.90
37786;DHT22;23625;48.784;9.336;2023-05-10T01:18:02;13.30;99.90
37786;DHT22;23625;48.784;9.336;2023-05-10T01:20:35;13.40;99.90
37786;DHT22;23625;48.784;9.336;2023-05-10T01:23:30;13.30;99.90
37786;DHT22;23625;48.784;9.336;2023-05-10T01:26:36;13.30;99.90
37786;DHT22;23625;48.784;9.336;2023-05-10T01:34:52;13.30;99.90
37786;DHT22;23625;48.784;9.336;2023-05-10T01:37:40;13.20;99.90
37786;DHT22;23625;48.784;9.336;2023-05-10T01:43:02;13.20;99.90
37786;DHT22;23625;48.784;9.336;2023-05-10T01:45:46;13.20;99.90
37786;DHT22;23625;48.784;9.336;2023-05-10T01:48:14;13.10;99.90
37786;DHT22;23625;48.784;9.336;2023-05-10T01:50:43;13.00;99.90
37786;DHT22;23625;48.784;9.336;2023-05-10T01:53:11;13.00;99.90
37786;DHT22;23625;48.784;9.336;2023-05-10T01:55:49;13.00;99.90
37786;DHT22;23625;48.784;9.336;2023-05-10T01:58:29;13.00;99.90
37786;DHT22;23625;48.784;9.336;2023-05-10T02:00:57;12.90;99.90
37786;DHT22;23625;48.784;9.336;2023-05-10T02:03:25;12.90;99.90
37786;DHT22;23625;48.784;9.336;2023-05-10T02:05:53;13.00;99.90
37786;DHT22;23625;48.784;9.336;2023-05-10T02:08:21;12.90;99.90
37786;DHT22;23625;48.784;9.336;2023-05-10T02:10:49;12.90;99.90
37786;DHT22;23625;48.784;9.336;2023-05-10T02:13:16;12.90;99.90
37786;DHT22;23625;48.784;9.336;2023-05-10T02:15:42;12.90;99.90
37786;DHT22;23625;48.784;9.336;2023-05-10T02:18:09;12.90;99.90
37786;DHT22;23625;48.784;9.336;2023-05-10T02:20:37;12.90;99.90
37786;DHT22;23625;48.784;9.336;2023-05-10T02:23:03;12.90;99.90
37786;DHT22;23625;48.784;9.336;2023-05-10T02:25:29;12.90;99.90
37786;DHT22;23625;48.784;9.336;2023-05-10T02:27:57;12.80;99.90
37786;DHT22;23625;48.784;9.336;2023-05-10T02:30:23;12.80;99.90
37786;DHT22;23625;48.784;9.336;2023-05-10T02:32:50;12.70;99.90
37786;DHT22;23625;48.784;9.336;2023-05-10T02:35:17;12.70;99.90
37786;DHT22;23625;48.784;9.336;2023-05-10T02:37:43;12.60;99.90
37786;DHT22;23625;48.784;9.336;2023-05-10T02:40:10;12.60;99.90
37786;DHT22;23625;48.784;9.336;2023-05-10T02:42:37;12.60;99.90
37786;DHT22;23625;48.784;9.336;2023-05-10T02:45:10;12.60;99.90
37786;DHT22;23625;48.784;9.336;2023-05-10T02:47:36;12.50;99.90
37786;DHT22;23625;48.784;9.336;2023-05-10T02:50:02;12.50;99.90
37786;DHT22;23625;48.784;9.336;2023-05-10T02:52:34;12.50;99.90
37786;DHT22;23625;48.784;9.336;2023-05-10T02:55:02;12.50;99.90
37786;DHT22;23625;48.784;9.336;2023-05-10T02:57:33;12.50;99.90
37786;DHT22;23625;48.784;9.336;2023-05-10T03:00:00;12.40;99.90
37786;DHT22;23625;48.784;9.336;2023-05-10T03:02:26;12.50;99.90
37786;DHT22;23625;48.784;9.336;2023-05-10T03:04:52;12.40;99.90
37786;DHT22;23625;48.784;9.336;2023-05-10T03:07:18;12.40;99.90
37786;DHT22;23625;48.784;9.336;2023-05-10T03:09:49;12.40;99.90
37786;DHT22;23625;48.784;9.336;2023-05-10T03:12:27;12.40;99.90
37786;DHT22;23625;48.784;9.336;2023-05-10T03:17:55;12.40;99.90
37786;DHT22;23625;48.784;9.336;2023-05-10T03:20:25;12.40;99.90
37786;DHT22;23625;48.784;9.336;2023-05-10T03:22:55;12.40;99.90
37786;DHT22;23625;48.784;9.336;2023-05-10T03:25:26;12.40;99.90
37786;DHT22;23625;48.784;9.336;2023-05-10T03:27:52;12.40;99.90
37786;DHT22;23625;48.784;9.336;2023-05-10T03:30:18;12.40;99.90
37786;DHT22;23625;48.784;9.336;2023-05-10T03:32:44;12.40;99.90
37786;DHT22;23625;48.784;9.336;2023-05-10T03:35:12;12.40;99.90
37786;DHT22;23625;48.784;9.336;2023-05-10T03:37:38;12.30;99.90
37786;DHT22;23625;48.784;9.336;2023-05-10T03:40:05;12.30;99.90
37786;DHT22;23625;48.784;9.336;2023-05-10T03:42:31;12.40;99.90
37786;DHT22;23625;48.784;9.336;2023-05-10T03:44:56;12.30;99.90
37786;DHT22;23625;48.784;9.336;2023-05-10T03:47:22;12.30;99.90
37786;DHT22;23625;48.784;9.336;2023-05-10T03:49:47;12.30;99.90
37786;DHT22;23625;48.784;9.336;2023-05-10T03:52:14;12.30;99.90
37786;DHT22;23625;48.784;9.336;2023-05-10T03:54:39;12.30;99.90
37786;DHT22;23625;48.784;9.336;2023-05-10T03:57:05;12.30;99.90
37786;DHT22;23625;48.784;9.336;2023-05-10T03:59:30;12.30;99.90
37786;DHT22;23625;48.784;9.336;2023-05-10T04:01:56;12.30;99.90
37786;DHT22;23625;48.784;9.336;2023-05-10T04:04:22;12.30;99.90
37786;DHT22;23625;48.784;9.336;2023-05-10T04:06:48;12.30;99.90
37786;DHT22;23625;48.784;9.336;2023-05-10T04:09:14;12.30;99.90
37786;DHT22;23625;48.784;9.336;2023-05-10T04:11:39;12.30;99.90
37786;DHT22;23625;48.784;9.336;2023-05-10T04:14:05;12.30;99.90
37786;DHT22;23625;48.784;9.336;2023-05-10T04:16:31;12.30;99.90
37786;DHT22;23625;48.784;9.336;2023-05-10T04:18:56;12.30;99.90
37786;DHT22;23625;48.784;9.336;2023-05-10T04:21:22;12.30;99.90
37786;DHT22;23625;48.784;9.336;2023-05-10T04:23:48;12.30;99.90
37786;DHT22;23625;48.784;9.336;2023-05-10T04:26:13;12.30;99.90
37786;DHT22;23625;48.784;9.336;2023-05-10T04:28:39;12.30;99.90
37786;DHT22;23625;48.784;9.336;2023-05-10T04:31:06;12.20;99.90
37786;DHT22;23625;48.784;9.336;2023-05-10T04:33:32;12.30;99.90
37786;DHT22;23625;48.784;9.336;2023-05-10T04:35:58;12.30;99.90
37786;DHT22;23625;48.784;9.336;2023-05-10T04:38:24;12.30;99.90
37786;DHT22;23625;48.784;9.336;2023-05-10T04:40:50;12.30;99.90
37786;DHT22;23625;48.784;9.336;2023-05-10T04:43:15;12.30;99.90
37786;DHT22;23625;48.784;9.336;2023-05-10T04:45:41;12.40;99.90
37786;DHT22;23625;48.784;9.336;2023-05-10T04:48:06;12.40;99.90
37786;DHT22;23625;48.784;9.336;2023-05-10T04:50:33;12.40;99.90
37786;DHT22;23625;48.784;9.336;2023-05-10T04:52:58;12.40;99.90
37786;DHT22;23625;48.784;9.336;2023-05-10T04:55:24;12.50;99.90
37786;DHT22;23625;48.784;9.336;2023-05-10T04:57:50;12.50;99.90
37786;DHT22;23625;48.784;9.336;2023-05-10T05:00:16;12.50;99.90
37786;DHT22;23625;48.784;9.336;2023-05-10T05:02:45;12.50;99.90
37786;DHT22;23625;48.784;9.336;2023-05-10T05:05:11;12.60;99.90
37786;DHT22;23625;48.784;9.336;2023-05-10T05:07:37;12.60;99.90
37786;DHT22;23625;48.784;9.336;2023-05-10T05:10:07;12.60;99.90
37786;DHT22;23625;48.784;9.336;2023-05-10T05:12:33;12.60;99.90
37786;DHT22;23625;48.784;9.336;2023-05-10T05:15:00;12.70;99.90
37786;DHT22;23625;48.784;9.336;2023-05-10T05:17:26;12.70;99.90
37786;DHT22;23625;48.784;9.336;2023-05-10T05:19:52;12.70;99.90
37786;DHT22;23625;48.784;9.336;2023-05-10T05:22:18;12.80;99.90
37786;DHT22;23625;48.784;9.336;2023-05-10T05:24:45;12.80;99.90
37786;DHT22;23625;48.784;9.336;2023-05-10T05:27:10;12.90;99.90
37786;DHT22;23625;48.784;9.336;2023-05-10T05:29:36;12.90;99.90
37786;DHT22;23625;48.784;9.336;2023-05-10T05:32:02;13.00;99.90
37786;DHT22;23625;48.784;9.336;2023-05-10T05:34:27;13.00;99.90
37786;DHT22;23625;48.784;9.336;2023-05-10T05:36:53;13.00;99.90
37786;DHT22;23625;48.784;9.336;2023-05-10T05:39:19;13.00;99.90
37786;DHT22;23625;48.784;9.336;2023-05-10T05:41:44;13.10;99.90
37786;DHT22;23625;48.784;9.336;2023-05-10T05:44:11;13.10;99.90
37786;DHT22;23625;48.784;9.336;2023-05-10T05:46:37;13.20;99.90
37786;DHT22;23625;48.784;9.336;2023-05-10T05:49:02;13.30;99.90
37786;DHT22;23625;48.784;9.336;2023-05-10T05:51:28;13.40;99.90
37786;DHT22;23625;48.784;9.336;2023-05-10T05:53:53;13.40;99.90
37786;DHT22;23625;48.784;9.336;2023-05-10T05:56:19;13.50;99.90
37786;DHT22;23625;48.784;9.336;2023-05-10T05:58:50;13.50;99.90
37786;DHT22;23625;48.784;9.336;2023-05-10T06:01:15;13.60;99.90
37786;DHT22;23625;48.784;9.336;2023-05-10T06:03:41;13.70;99.90
37786;DHT22;23625;48.784;9.336;2023-05-10T06:06:07;13.70;99.90
37786;DHT22;23625;48.784;9.336;2023-05-10T06:08:33;13.70;99.90
37786;DHT22;23625;48.784;9.336;2023-05-10T06:10:59;13.70;99.90
37786;DHT22;23625;48.784;9.336;2023-05-10T06:13:25;13.70;99.90
37786;DHT22;23625;48.784;9.336;2023-05-10T06:15:54;13.80;99.90
37786;DHT22;23625;48.784;9.336;2023-05-10T06:18:19;13.80;99.90
37786;DHT22;23625;48.784;9.336;2023-05-10T06:20:45;13.90;99.90
37786;DHT22;23625;48.784;9.336;2023-05-10T06:23:10;13.80;99.90
37786;DHT22;23625;48.784;9.336;2023-05-10T06:25:36;13.80;99.90
37786;DHT22;23625;48.784;9.336;2023-05-10T06:28:02;13.90;99.90
37786;DHT22;23625;48.784;9.336;2023-05-10T06:30:27;13.90;99.90
37786;DHT22;23625;48.784;9.336;2023-05-10T06:32:54;13.90;99.90
37786;DHT22;23625;48.784;9.336;2023-05-10T06:35:19;13.90;99.90
37786;DHT22;23625;48.784;9.336;2023-05-10T06:37:45;13.90;99.90
37786;DHT22;23625;48.784;9.336;2023-05-10T06:40:11;13.90;99.90
37786;DHT22;23625;48.784;9.336;2023-05-10T06:42:37;13.90;99.90
37786;DHT22;23625;48.784;9.336;2023-05-10T06:45:03;13.90;99.90
37786;DHT22;23625;48.784;9.336;2023-05-10T06:47:29;13.90;99.90
37786;DHT22;23625;48.784;9.336;2023-05-10T06:49:54;13.90;99.90
37786;DHT22;23625;48.784;9.336;2023-05-10T06:52:21;13.90;99.90
37786;DHT22;23625;48.784;9.336;2023-05-10T06:54:46;13.90;99.90
37786;DHT22;23625;48.784;9.336;2023-05-10T06:57:12;13.90;99.90
37786;DHT22;23625;48.784;9.336;2023-05-10T06:59:37;14.00;99.90
37786;DHT22;23625;48.784;9.336;2023-05-10T07:02:03;14.00;99.90
37786;DHT22;23625;48.784;9.336;2023-05-10T07:04:29;14.00;99.90
37786;DHT22;23625;48.784;9.336;2023-05-10T07:06:54;14.00;99.90
37786;DHT22;23625;48.784;9.336;2023-05-10T07:09:20;14.00;99.90
37786;DHT22;23625;48.784;9.336;2023-05-10T07:11:45;14.00;99.90
37786;DHT22;23625;48.784;9.336;2023-05-10T07:14:11;14.10;99.90
37786;DHT22;23625;48.784;9.336;2023-05-10T07:16:37;14.00;99.90
37786;DHT22;23625;48.784;9.336;2023-05-10T07:19:02;14.10;99.90
37786;DHT22;23625;48.784;9.336;2023-05-10T07:21:28;14.00;99.90
37786;DHT22;23625;48.784;9.336;2023-05-10T07:23:54;14.00;99.90
37786;DHT22;23625;48.784;9.336;2023-05-10T07:26:19;14.00;99.90
37786;DHT22;23625;48.784;9.336;2023-05-10T07:28:46;14.00;99.90
37786;DHT22;23625;48.784;9.336;2023-05-10T07:31:12;14.10;99.90
37786;DHT22;23625;48.784;9.336;2023-05-10T07:33:37;14.20;99.90
37786;DHT22;23625;48.784;9.336;2023-05-10T07:36:03;14.20;99.90
37786;DHT22;23625;48.784;9.336;2023-05-10T07:38:29;14.30;99.90
37786;DHT22;23625;48.784;9.336;2023-05-10T07:40:54;14.40;99.90
37786;DHT22;23625;48.784;9.336;2023-05-10T07:43:20;14.40;99.90
37786;DHT22;23625;48.784;9.336;2023-05-10T07:45:45;14.60;99.90
37786;DHT22;23625;48.784;9.336;2023-05-10T07:48:11;14.70;99.90
37786;DHT22;23625;48.784;9.336;2023-05-10T07:50:36;14.70;99.90
37786;DHT22;23625;48.784;9.336;2023-05-10T07:53:02;14.80;99.90
37786;DHT22;23625;48.784;9.336;2023-05-10T07:55:27;14.90;99.90
37786;DHT22;23625;48.784;9.336;2023-05-10T07:57:53;15.00;99.90
37786;DHT22;23625;48.784;9.336;2023-05-10T08:00:19;15.00;99.90
37786;DHT22;23625;48.784;9.336;2023-05-10T08:02:46;15.00;99.90
37786;DHT22;23625;48.784;9.336;2023-05-10T08:05:12;15.00;99.90
37786;DHT22;23625;48.784;9.336;2023-05-10T08:07:37;15.10;99.90
37786;DHT22;23625;48.784;9.336;2023-05-10T08:10:03;15.10;99.90
37786;DHT22;23625;48.784;9.336;2023-05-10T08:12:29;15.10;99.90
37786;DHT22;23625;48.784;9.336;2023-05-10T08:14:55;15.10;99.90
37786;DHT22;23625;48.784;9.336;2023-05-10T08:17:21;15.10;99.90
37786;DHT22;23625;48.784;9.336;2023-05-10T08:19:46;15.10;99.90
37786;DHT22;23625;48.784;9.336;2023-05-10T08:22:12;15.10;99.90
37786;DHT22;23625;48.784;9.336;2023-05-10T08:24:37;15.10;99.90
37786;DHT22;23625;48.784;9.336;2023-05-10T08:27:07;15.10;99.90
37786;DHT22;23625;48.784;9.336;2023-05-10T08:29:33;15.20;99.90
37786;DHT22;23625;48.784;9.336;2023-05-10T08:31:59;15.10;99.90
37786;DHT22;23625;48.784;9.336;2023-05-10T08:34:26;15.00;99.90
37786;DHT22;23625;48.784;9.336;2023-05-10T08:36:52;15.20;99.90
37786;DHT22;23625;48.784;9.336;2023-05-10T08:39:17;15.20;99.90
37786;DHT22;23625;48.784;9.336;2023-05-10T08:41:44;15.00;99.90
37786;DHT22;23625;48.784;9.336;2023-05-10T08:44:12;15.10;99.90
37786;DHT22;23625;48.784;9.336;2023-05-10T08:46:39;15.10;99.90
37786;DHT22;23625;48.784;9.336;2023-05-10T08:49:09;15.10;99.90
37786;DHT22;23625;48.784;9.336;2023-05-10T08:51:40;15.20;99.90
37786;DHT22;23625;48.784;9.336;2023-05-10T08:54:08;15.20;99.90
37786;DHT22;23625;48.784;9.336;2023-05-10T08:56:34;15.20;99.90
37786;DHT22;23625;48.784;9.336;2023-05-10T08:59:00;15.40;99.90
37786;DHT22;23625;48.784;9.336;2023-05-10T09:01:26;15.30;99.90
37786;DHT22;23625;48.784;9.336;2023-05-10T09:03:53;15.30;99.90
37786;DHT22;23625;48.784;9.336;2023-05-10T09:06:18;15.30;99.90
37786;DHT22;23625;48.784;9.336;2023-05-10T09:08:44;15.30;99.90
37786;DHT22;23625;48.784;9.336;2023-05-10T09:11:11;15.40;99.90
37786;DHT22;23625;48.784;9.336;2023-05-10T09:13:38;15.40;99.90
37786;DHT22;23625;48.784;9.336;2023-05-10T09:16:04;15.40;99.90
37786;DHT22;23625;48.784;9.336;2023-05-10T09:18:30;15.50;99.90
37786;DHT22;23625;48.784;9.336;2023-05-10T09:20:56;15.50;99.90
37786;DHT22;23625;48.784;9.336;2023-05-10T09:23:21;15.70;99.90
37786;DHT22;23625;48.784;9.336;2023-05-10T09:25:47;15.90;99.90
37786;DHT22;23625;48.784;9.336;2023-05-10T09:28:13;16.10;99.90
37786;DHT22;23625;48.784;9.336;2023-05-10T09:30:38;16.20;99.90
37786;DHT22;23625;48.784;9.336;2023-05-10T09:33:04;16.50;99.90
37786;DHT22;23625;48.784;9.336;2023-05-10T09:35:32;16.50;99.90
37786;DHT22;23625;48.784;9.336;2023-05-10T09:38:01;16.50;99.90
37786;DHT22;23625;48.784;9.336;2023-05-10T09:40:28;16.60;99.90
37786;DHT22;23625;48.784;9.336;2023-05-10T09:43:02;16.50;99.90
37786;DHT22;23625;48.784;9.336;2023-05-10T09:45:33;16.40;99.90
37786;DHT22;23625;48.784;9.336;2023-05-10T09:48:00;16.30;99.90
37786;DHT22;23625;48.784;9.336;2023-05-10T09:50:27;16.40;99.90
37786;DHT22;23625;48.784;9.336;2023-05-10T09:55:24;16.30;99.90
37786;DHT22;23625;48.784;9.336;2023-05-10T09:57:59;16.20;99.90
37786;DHT22;23625;48.784;9.336;2023-05-10T10:00:25;16.30;99.90
37786;DHT22;23625;48.784;9.336;2023-05-10T10:02:58;16.30;99.90
37786;DHT22;23625;48.784;9.336;2023-05-10T10:05:32;16.30;99.90
37786;DHT22;23625;48.784;9.336;2023-05-10T10:07:58;16.30;99.90
37786;DHT22;23625;48.784;9.336;2023-05-10T10:10:25;16.30;99.90
37786;DHT22;23625;48.784;9.336;2023-05-10T10:12:51;16.30;99.90
37786;DHT22;23625;48.784;9.336;2023-05-10T10:15:17;16.30;99.90
37786;DHT22;23625;48.784;9.336;2023-05-10T10:17:43;16.30;99.90
37786;DHT22;23625;48.784;9.336;2023-05-10T10:20:09;16.30;99.90
37786;DHT22;23625;48.784;9.336;2023-05-10T10:22:36;16.20;99.90
37786;DHT22;23625;48.784;9.336;2023-05-10T10:25:03;16.00;99.90
37786;DHT22;23625;48.784;9.336;2023-05-10T10:30:39;16.00;99.90
37786;DHT22;23625;48.784;9.336;2023-05-10T10:35:55;16.20;99.90
37786;DHT22;23625;48.784;9.336;2023-05-10T10:38:23;16.10;99.90
37786;DHT22;23625;48.784;9.336;2023-05-10T10:41:02;16.10;99.90
37786;DHT22;23625;48.784;9.336;2023-05-10T10:43:28;16.10;99.90
37786;DHT22;23625;48.784;9.336;2023-05-10T10:46:16;16.10;99.90
37786;DHT22;23625;48.784;9.336;2023-05-10T10:48:50;16.00;99.90
37786;DHT22;23625;48.784;9.336;2023-05-10T10:51:36;16.00;99.90
37786;DHT22;23625;48.784;9.336;2023-05-10T10:54:09;16.00;99.90
37786;DHT22;23625;48.784;9.336;2023-05-10T10:56:35;16.20;99.90
37786;DHT22;23625;48.784;9.336;2023-05-10T10:59:01;16.10;99.90
37786;DHT22;23625;48.784;9.336;2023-05-10T11:01:33;16.20;99.90
37786;DHT22;23625;48.784;9.336;2023-05-10T11:06:32;16.40;99.90
37786;DHT22;23625;48.784;9.336;2023-05-10T11:08:58;16.30;99.90
37786;DHT22;23625;48.784;9.336;2023-05-10T11:11:23;16.30;99.90
37786;DHT22;23625;48.784;9.336;2023-05-10T11:13:49;16.20;99.90
37786;DHT22;23625;48.784;9.336;2023-05-10T11:18:49;16.10;99.90
37786;DHT22;23625;48.784;9.336;2023-05-10T11:21:17;16.00;99.90
37786;DHT22;23625;48.784;9.336;2023-05-10T11:23:49;15.90;99.90
37786;DHT22;23625;48.784;9.336;2023-05-10T11:26:15;15.80;99.90
37786;DHT22;23625;48.784;9.336;2023-05-10T11:28:48;15.80;99.90
37786;DHT22;23625;48.784;9.336;2023-05-10T11:31:15;15.60;99.90
37786;DHT22;23625;48.784;9.336;2023-05-10T11:33:48;15.60;99.80
37786;DHT22;23625;48.784;9.336;2023-05-10T11:36:16;15.40;95.70
37786;DHT22;23625;48.784;9.336;2023-05-10T11:38:42;15.40;97.00
37786;DHT22;23625;48.784;9.336;2023-05-10T11:41:09;15.30;99.90
37786;DHT22;23625;48.784;9.336;2023-05-10T11:43:35;15.30;99.90
37786;DHT22;23625;48.784;9.336;2023-05-10T11:46:04;15.30;99.90
37786;DHT22;23625;48.784;9.336;2023-05-10T11:48:30;15.30;99.90
37786;DHT22;23625;48.784;9.336;2023-05-10T11:50:56;15.30;99.90
37786;DHT22;23625;48.784;9.336;2023-05-10T11:53:25;15.40;99.90
37786;DHT22;23625;48.784;9.336;2023-05-10T11:55:51;15.50;99.90
37786;DHT22;23625;48.784;9.336;2023-05-10T11:58:18;15.60;99.90
37786;DHT22;23625;48.784;9.336;2023-05-10T12:00:44;15.50;99.30
37786;DHT22;23625;48.784;9.336;2023-05-10T12:03:11;15.50;99.90
37786;DHT22;23625;48.784;9.336;2023-05-10T12:05:37;15.50;99.90
37786;DHT22;23625;48.784;9.336;2023-05-10T12:08:19;15.60;99.90
37786;DHT22;23625;48.784;9.336;2023-05-10T12:10:45;15.60;99.90
37786;DHT22;23625;48.784;9.336;2023-05-10T12:13:11;15.50;99.90
37786;DHT22;23625;48.784;9.336;2023-05-10T12:15:38;15.60;99.90
37786;DHT22;23625;48.784;9.336;2023-05-10T12:18:04;15.50;99.90
37786;DHT22;23625;48.784;9.336;2023-05-10T12:20:31;15.70;99.90
37786;DHT22;23625;48.784;9.336;2023-05-10T12:22:57;15.70;99.90
37786;DHT22;23625;48.784;9.336;2023-05-10T12:25:30;15.70;99.90
37786;DHT22;23625;48.784;9.336;2023-05-10T12:27:58;15.60;99.90
37786;DHT22;23625;48.784;9.336;2023-05-10T12:30:31;15.50;99.90
37786;DHT22;23625;48.784;9.336;2023-05-10T12:33:02;15.40;99.90
37786;DHT22;23625;48.784;9.336;2023-05-10T12:35:32;15.30;99.90
37786;DHT22;23625;48.784;9.336;2023-05-10T12:37:58;15.30;99.90
37786;DHT22;23625;48.784;9.336;2023-05-10T12:40:26;15.40;99.90
37786;DHT22;23625;48.784;9.336;2023-05-10T12:42:52;15.50;99.90
37786;DHT22;23625;48.784;9.336;2023-05-10T12:45:18;15.50;99.90
37786;DHT22;23625;48.784;9.336;2023-05-10T12:47:44;15.60;99.90
37786;DHT22;23625;48.784;9.336;2023-05-10T12:50:15;15.70;99.90
37786;DHT22;23625;48.784;9.336;2023-05-10T12:52:41;15.70;99.90
37786;DHT22;23625;48.784;9.336;2023-05-10T12:55:06;15.80;99.90
37786;DHT22;23625;48.784;9.336;2023-05-10T12:57:35;15.90;99.90
37786;DHT22;23625;48.784;9.336;2023-05-10T13:00:01;16.10;99.90
37786;DHT22;23625;48.784;9.336;2023-05-10T13:02:26;16.20;99.90
37786;DHT22;23625;48.784;9.336;2023-05-10T13:04:52;16.20;99.90
37786;DHT22;23625;48.784;9.336;2023-05-10T13:07:18;16.20;99.90
37786;DHT22;23625;48.784;9.336;2023-05-10T13:09:44;16.20;99.90
37786;DHT22;23625;48.784;9.336;2023-05-10T13:12:09;16.10;99.90
37786;DHT22;23625;48.784;9.336;2023-05-10T13:14:35;16.20;99.90
37786;DHT22;23625;48.784;9.336;2023-05-10T13:17:01;16.00;99.90
37786;DHT22;23625;48.784;9.336;2023-05-10T13:19:26;16.10;99.90
37786;DHT22;23625;48.784;9.336;2023-05-10T13:21:52;16.00;99.90
37786;DHT22;23625;48.784;9.336;2023-05-10T13:24:18;15.90;99.90
37786;DHT22;23625;48.784;9.336;2023-05-10T13:26:43;15.90;99.90
37786;DHT22;23625;48.784;9.336;2023-05-10T13:29:09;15.80;96.90
37786;DHT22;23625;48.784;9.336;2023-05-10T13:31:35;15.80;98.50
37786;DHT22;23625;48.784;9.336;2023-05-10T13:34:01;15.60;99.90
37786;DHT22;23625;48.784;9.336;2023-05-10T13:36:27;15.50;99.90
37786;DHT22;23625;48.784;9.336;2023-05-10T13:38:53;15.50;98.80
37786;DHT22;23625;48.784;9.336;2023-05-10T13:41:22;15.40;99.90
37786;DHT22;23625;48.784;9.336;2023-05-10T13:43:47;15.40;99.90
37786;DHT22;23625;48.784;9.336;2023-05-10T13:46:14;15.40;99.90
37786;DHT22;23625;48.784;9.336;2023-05-10T13:48:40;15.40;99.90
37786;DHT22;23625;48.784;9.336;2023-05-10T13:51:05;15.40;99.90
37786;DHT22;23625;48.784;9.336;2023-05-10T13:53:31;15.50;99.90
37786;DHT22;23625;48.784;9.336;2023-05-10T13:55:56;15.70;99.90
37786;DHT22;23625;48.784;9.336;2023-05-10T13:58:22;15.70;99.90
37786;DHT22;23625;48.784;9.336;2023-05-10T14:00:48;15.80;99.90
37786;DHT22;23625;48.784;9.336;2023-05-10T14:03:14;15.80;99.90
37786;DHT22;23625;48.784;9.336;2023-05-10T14:05:39;15.90;99.90
37786;DHT22;23625;48.784;9.336;2023-05-10T14:08:05;15.90;99.90
37786;DHT22;23625;48.784;9.336;2023-05-10T14:10:31;16.00;99.90
37786;DHT22;23625;48.784;9.336;2023-05-10T14:12:56;16.00;99.90
37786;DHT22;23625;48.784;9.336;2023-05-10T14:15:22;16.10;99.90
37786;DHT22;23625;48.784;9.336;2023-05-10T14:17:48;16.20;99.90
37786;DHT22;23625;48.784;9.336;2023-05-10T14:20:13;16.20;99.90
37786;DHT22;23625;48.784;9.336;2023-05-10T14:22:39;16.40;99.90
37786;DHT22;23625;48.784;9.336;2023-05-10T14:25:05;16.50;99.90
37786;DHT22;23625;48.784;9.336;2023-05-10T14:27:31;16.60;99.90
37786;DHT22;23625;48.784;9.336;2023-05-10T14:29:57;16.60;99.90
37786;DHT22;23625;48.784;9.336;2023-05-10T14:32:23;16.60;99.90
37786;DHT22;23625;48.784;9.336;2023-05-10T14:34:49;16.70;99.90
37786;DHT22;23625;48.784;9.336;2023-05-10T14:37:14;16.80;93.10
37786;DHT22;23625;48.784;9.336;2023-05-10T14:39:40;16.80;87.40
37786;DHT22;23625;48.784;9.336;2023-05-10T14:42:07;16.70;92.50
37786;DHT22;23625;48.784;9.336;2023-05-10T14:44:34;16.70;91.40
37786;DHT22;23625;48.784;9.336;2023-05-10T14:46:59;16.70;91.20
37786;DHT22;23625;48.784;9.336;2023-05-10T14:49:25;16.80;91.40
37786;DHT22;23625;48.784;9.336;2023-05-10T14:51:51;16.80;90.00
37786;DHT22;23625;48.784;9.336;2023-05-10T14:54:17;16.80;86.50
37786;DHT22;23625;48.784;9.336;2023-05-10T14:56:43;16.90;85.20
37786;DHT22;23625;48.784;9.336;2023-05-10T14:59:09;16.90;87.30
37786;DHT22;23625;48.784;9.336;2023-05-10T15:01:34;16.80;79.10
37786;DHT22;23625;48.784;9.336;2023-05-10T15:04:03;16.90;76.90
37786;DHT22;23625;48.784;9.336;2023-05-10T15:06:32;16.70;77.20
37786;DHT22;23625;48.784;9.336;2023-05-10T15:08:59;16.70;80.00
37786;DHT22;23625;48.784;9.336;2023-05-10T15:11:25;16.70;81.10
37786;DHT22;23625;48.784;9.336;2023-05-10T15:13:51;16.70;78.30
37786;DHT22;23625;48.784;9.336;2023-05-10T15:16:17;16.70;77.60
37786;DHT22;23625;48.784;9.336;2023-05-10T15:18:42;16.80;78.00
37786;DHT22;23625;48.784;9.336;2023-05-10T15:21:08;16.70;76.50
37786;DHT22;23625;48.784;9.336;2023-05-10T15:23:34;16.60;79.00
37786;DHT22;23625;48.784;9.336;2023-05-10T15:26:00;16.50;80.00
37786;DHT22;23625;48.784;9.336;2023-05-10T15:28:26;16.50;79.20
37786;DHT22;23625;48.784;9.336;2023-05-10T15:30:51;16.50;78.80
37786;DHT22;23625;48.784;9.336;2023-05-10T15:33:17;16.60;79.40
37786;DHT22;23625;48.784;9.336;2023-05-10T15:35:42;16.50;81.20
37786;DHT22;23625;48.784;9.336;2023-05-10T15:38:09;16.60;79.30
37786;DHT22;23625;48.784;9.336;2023-05-10T15:40:34;16.60;80.90
37786;DHT22;23625;48.784;9.336;2023-05-10T15:43:00;16.50;84.40
37786;DHT22;23625;48.784;9.336;2023-05-10T15:45:26;16.60;86.10
37786;DHT22;23625;48.784;9.336;2023-05-10T15:47:52;16.70;78.80
37786;DHT22;23625;48.784;9.336;2023-05-10T15:50:17;16.60;81.80
37786;DHT22;23625;48.784;9.336;2023-05-10T15:52:43;16.60;85.50